createdAt,value
2018-04-18T00:00:02.094Z,8.20
2018-04-18T00:02:28.775Z,8.80
2018-04-18T00:04:55.403Z,9.02
2018-04-18T00:07:22.146Z,7.87
2018-04-18T00:09:48.786Z,8.40
2018-04-18T00:12:15.407Z,7.68
2018-04-18T00:14:42.075Z,9.07
2018-04-18T00:17:08.822Z,8.48
2018-04-18T00:19:35.471Z,8.48
2018-04-18T00:22:02.199Z,7.93
2018-04-18T00:24:28.832Z,8.93
2018-04-18T00:26:55.509Z,8.38
2018-04-18T00:29:22.220Z,9.00
2018-04-18T00:31:48.981Z,9.70
2018-04-18T00:34:15.625Z,8.90
2018-04-18T00:36:42.257Z,9.23
2018-04-18T00:39:08.893Z,8.88
2018-04-18T00:41:35.612Z,9.10
2018-04-18T00:44:02.263Z,10.07
2018-04-18T00:46:28.891Z,9.90
2018-04-18T00:48:55.540Z,8.63
2018-04-18T00:51:22.175Z,8.77
2018-04-18T00:53:48.813Z,9.10
2018-04-18T00:56:15.547Z,9.27
2018-04-18T00:58:42.193Z,8.48
2018-04-18T01:01:08.824Z,9.75
2018-04-18T01:03:35.568Z,8.23
2018-04-18T01:06:02.203Z,9.50
2018-04-18T01:08:28.854Z,9.52
2018-04-18T01:10:55.596Z,9.18
2018-04-18T01:13:22.331Z,8.90
2018-04-18T01:15:49.080Z,10.02
2018-04-18T01:18:15.727Z,9.60
2018-04-18T01:20:42.350Z,9.35
2018-04-18T01:23:08.971Z,9.30
2018-04-18T01:25:35.615Z,8.90
2018-04-18T01:28:02.276Z,10.10
2018-04-18T01:30:28.908Z,10.15
2018-04-18T01:32:55.546Z,10.15
2018-04-18T01:35:22.177Z,10.85
2018-04-18T01:37:48.832Z,10.05
2018-04-18T01:40:15.467Z,9.90
2018-04-18T01:42:42.091Z,8.52
2018-04-18T01:45:08.724Z,9.65
2018-04-18T01:47:35.380Z,9.82
2018-04-18T01:50:02.012Z,9.90
2018-04-18T01:52:28.647Z,10.07
2018-04-18T01:54:55.287Z,10.60
2018-04-18T01:57:21.912Z,9.57
2018-04-18T01:59:48.550Z,10.52
2018-04-18T02:02:15.215Z,10.63
2018-04-18T02:04:41.849Z,10.93
2018-04-18T02:07:08.480Z,9.77
2018-04-18T02:09:35.262Z,10.90
2018-04-18T02:12:01.979Z,12.55
2018-04-18T02:14:28.616Z,11.50
2018-04-18T02:16:55.294Z,13.13
2018-04-18T02:19:21.917Z,11.82
2018-04-18T02:21:48.639Z,10.68
2018-04-18T02:24:15.297Z,11.02
2018-04-18T02:26:42.015Z,10.85
2018-04-18T02:29:08.651Z,10.80
2018-04-18T02:31:35.305Z,10.40
2018-04-18T02:34:01.946Z,10.70
2018-04-18T02:36:28.583Z,10.27
2018-04-18T02:38:55.242Z,9.93
2018-04-18T02:41:21.873Z,11.27
2018-04-18T02:43:48.510Z,10.13
2018-04-18T02:46:15.164Z,10.38
2018-04-18T02:48:41.795Z,11.68
2018-04-18T02:51:08.422Z,11.65
2018-04-18T02:53:35.149Z,10.77
2018-04-18T02:56:01.781Z,11.20
2018-04-18T02:58:28.434Z,12.25
2018-04-18T03:00:55.066Z,11.80
2018-04-18T03:03:21.696Z,11.75
2018-04-18T03:05:48.320Z,10.10
2018-04-18T03:08:14.972Z,11.50
2018-04-18T03:10:41.629Z,11.32
2018-04-18T03:13:08.260Z,11.40
2018-04-18T03:15:34.905Z,11.82
2018-04-18T03:18:01.536Z,12.10
2018-04-18T03:20:28.168Z,12.23
2018-04-18T03:22:54.816Z,11.18
2018-04-18T03:25:21.555Z,11.30
2018-04-18T03:27:48.195Z,12.32
2018-04-18T03:30:14.844Z,12.30
2018-04-18T03:32:41.466Z,12.43
2018-04-18T03:35:08.143Z,12.10
2018-04-18T03:37:34.781Z,12.70
2018-04-18T03:40:01.411Z,11.70
2018-04-18T03:42:28.039Z,13.05
2018-04-18T03:44:54.683Z,13.25
2018-04-18T03:47:21.315Z,12.48
2018-04-18T03:49:47.948Z,15.65
2018-04-18T03:52:14.595Z,14.55
2018-04-18T03:54:41.232Z,14.23
2018-04-18T03:57:07.862Z,15.88
2018-04-18T03:59:34.502Z,14.23
2018-04-18T04:02:01.147Z,14.00
2018-04-18T04:04:27.784Z,12.15
2018-04-18T04:06:54.427Z,12.75
2018-04-18T04:09:21.047Z,12.80
2018-04-18T04:11:47.684Z,13.82
2018-04-18T04:14:14.330Z,13.13
2018-04-18T04:16:46.932Z,12.27
2018-04-18T04:19:19.579Z,13.93
2018-04-18T04:21:52.198Z,12.13
2018-04-18T04:24:24.751Z,12.63
2018-04-18T04:26:51.490Z,12.73
2018-04-18T04:29:18.135Z,13.68
2018-04-18T04:31:44.874Z,13.23
2018-04-18T04:34:11.494Z,13.15
2018-04-18T04:36:39.048Z,14.00
2018-04-18T04:39:05.696Z,14.00
2018-04-18T04:41:32.333Z,14.13
2018-04-18T04:43:58.997Z,13.95
2018-04-18T04:46:25.640Z,15.00
2018-04-18T04:48:52.270Z,14.85
2018-04-18T04:51:18.903Z,15.43
2018-04-18T04:53:45.551Z,15.23
2018-04-18T04:56:12.175Z,12.70
2018-04-18T04:58:38.813Z,13.25
2018-04-18T05:01:05.472Z,13.95
2018-04-18T05:03:32.209Z,14.55
2018-04-18T05:05:58.840Z,14.32
2018-04-18T05:08:25.586Z,13.32
2018-04-18T05:10:52.206Z,13.25
2018-04-18T05:13:18.844Z,12.93
2018-04-18T05:15:45.496Z,14.95
2018-04-18T05:18:12.130Z,13.00
2018-04-18T05:20:38.809Z,13.80
2018-04-18T05:23:05.450Z,14.68
2018-04-18T05:25:32.074Z,12.75
2018-04-18T05:27:58.827Z,15.65
2018-04-18T05:30:25.477Z,14.93
2018-04-18T05:32:52.112Z,13.32
2018-04-18T05:35:18.824Z,13.38
2018-04-18T05:37:45.480Z,14.00
2018-04-18T05:40:12.125Z,13.55
2018-04-18T05:42:38.847Z,13.80
2018-04-18T05:45:05.488Z,13.55
2018-04-18T05:47:32.128Z,12.60
2018-04-18T05:49:58.764Z,12.45
2018-04-18T05:52:25.498Z,14.13
2018-04-18T05:54:52.125Z,13.50
2018-04-18T05:57:18.803Z,15.90
2018-04-18T05:59:45.457Z,13.38
2018-04-18T06:02:12.159Z,12.65
2018-04-18T06:04:38.824Z,14.40
2018-04-18T06:07:05.475Z,13.25
2018-04-18T06:09:32.100Z,13.00
2018-04-18T06:11:58.725Z,13.60
2018-04-18T06:14:25.464Z,15.45
2018-04-18T06:16:52.095Z,12.73
2018-04-18T06:19:18.851Z,14.23
2018-04-18T06:21:45.503Z,16.80
2018-04-18T06:24:12.243Z,15.55
2018-04-18T06:26:38.870Z,13.90
2018-04-18T06:29:05.597Z,15.55
2018-04-18T06:31:32.336Z,15.50
2018-04-18T06:33:59.005Z,13.93
2018-04-18T06:36:25.745Z,15.38
2018-04-18T06:38:52.388Z,15.70
2018-04-18T06:41:19.024Z,15.43
2018-04-18T06:43:45.765Z,15.27
2018-04-18T06:46:12.490Z,17.02
2018-04-18T06:48:39.128Z,16.27
2018-04-18T06:51:05.781Z,15.75
2018-04-18T06:53:32.499Z,14.07
2018-04-18T06:55:59.131Z,15.73
2018-04-18T06:58:25.908Z,14.30
2018-04-18T07:00:52.626Z,13.27
2018-04-18T07:03:19.254Z,14.52
2018-04-18T07:05:45.926Z,14.35
2018-04-18T07:08:12.670Z,12.95
2018-04-18T07:10:39.379Z,14.13
2018-04-18T07:13:06.126Z,14.93
2018-04-18T07:15:32.893Z,14.57
2018-04-18T07:17:59.517Z,15.32
2018-04-18T07:20:26.166Z,17.12
2018-04-18T07:22:52.892Z,16.12
2018-04-18T07:25:19.628Z,16.30
2018-04-18T07:27:46.274Z,17.33
2018-04-18T07:30:12.907Z,17.12
2018-04-18T07:32:39.611Z,16.67
2018-04-18T07:35:06.257Z,17.30
2018-04-18T07:37:32.933Z,17.87
2018-04-18T07:39:59.572Z,19.20
2018-04-18T07:42:26.220Z,19.77
2018-04-18T07:44:52.851Z,18.95
2018-04-18T07:47:19.479Z,19.42
2018-04-18T07:49:46.123Z,19.85
2018-04-18T07:52:12.745Z,19.60
2018-04-18T07:54:39.386Z,21.55
2018-04-18T07:57:06.135Z,19.30
2018-04-18T07:59:32.766Z,20.20
2018-04-18T08:01:59.435Z,20.35
2018-04-18T08:04:26.063Z,21.92
2018-04-18T08:06:52.695Z,19.95
2018-04-18T08:09:19.324Z,19.35
2018-04-18T08:11:45.981Z,20.10
2018-04-18T08:14:12.616Z,20.90
2018-04-18T08:16:39.238Z,21.08
2018-04-18T08:19:05.889Z,19.08
2018-04-18T08:21:32.630Z,21.75
2018-04-18T08:23:59.298Z,20.23
2018-04-18T08:26:26.040Z,21.80
2018-04-18T08:28:52.760Z,21.30
2018-04-18T08:31:19.497Z,21.27
2018-04-18T08:33:46.234Z,19.65
2018-04-18T08:36:12.868Z,20.17
2018-04-18T08:38:39.502Z,19.50
2018-04-18T08:41:06.156Z,19.77
2018-04-18T08:43:32.795Z,18.50
2018-04-18T08:45:59.427Z,18.83
2018-04-18T08:48:26.080Z,17.33
2018-04-18T08:50:52.711Z,18.55
2018-04-18T08:53:19.345Z,16.70
2018-04-18T08:55:45.992Z,17.70
2018-04-18T08:58:12.735Z,18.10
2018-04-18T09:00:39.367Z,18.50
2018-04-18T09:03:06.006Z,18.67
2018-04-18T09:05:32.636Z,17.52
2018-04-18T09:07:59.272Z,18.40
2018-04-18T09:10:26.038Z,20.50
2018-04-18T09:12:52.667Z,16.00
2018-04-18T09:15:19.295Z,16.75
2018-04-18T09:17:46.052Z,13.68
2018-04-18T09:20:12.792Z,16.12
2018-04-18T09:22:39.419Z,16.62
2018-04-18T09:25:06.071Z,13.32
2018-04-18T09:27:32.807Z,12.63
2018-04-18T09:29:59.473Z,12.20
2018-04-18T09:32:26.162Z,12.25
2018-04-18T09:34:52.759Z,11.15
2018-04-18T09:37:19.384Z,11.32
2018-04-18T09:39:46.054Z,12.98
2018-04-18T09:42:12.743Z,8.55
2018-04-18T09:44:39.369Z,11.40
2018-04-18T09:47:06.128Z,11.05
2018-04-18T09:49:32.764Z,11.00
2018-04-18T09:51:59.392Z,9.05
2018-04-18T09:54:26.044Z,8.23
2018-04-18T09:56:52.676Z,7.62
2018-04-18T09:59:19.348Z,8.45
2018-04-18T10:01:45.983Z,7.70
2018-04-18T10:04:12.602Z,7.43
2018-04-18T10:06:39.233Z,6.78
2018-04-18T10:09:05.866Z,7.75
2018-04-18T10:11:32.515Z,9.38
2018-04-18T10:13:59.144Z,7.90
2018-04-18T10:16:25.777Z,6.55
2018-04-18T10:18:52.408Z,6.82
2018-04-18T10:21:19.039Z,7.30
2018-04-18T10:23:45.683Z,6.37
2018-04-18T10:26:12.308Z,6.07
2018-04-18T10:28:39.013Z,7.60
2018-04-18T10:31:05.650Z,8.00
2018-04-18T10:33:32.269Z,6.57
2018-04-18T10:35:59.015Z,7.45
2018-04-18T10:38:25.748Z,6.78
2018-04-18T10:40:52.384Z,6.30
2018-04-18T10:43:19.043Z,8.18
2018-04-18T10:45:45.776Z,6.75
2018-04-18T10:48:12.507Z,7.03
2018-04-18T10:50:39.124Z,6.80
2018-04-18T10:53:05.763Z,8.55
2018-04-18T10:55:32.393Z,6.95
2018-04-18T10:57:59.029Z,7.50
2018-04-18T11:00:25.675Z,6.65
2018-04-18T11:02:52.348Z,6.53
2018-04-18T11:05:18.971Z,7.25
2018-04-18T11:07:45.610Z,5.45
2018-04-18T11:10:12.242Z,5.45
2018-04-18T11:12:38.928Z,5.20
2018-04-18T11:15:05.668Z,4.72
2018-04-18T11:17:32.386Z,4.20
2018-04-18T11:19:59.007Z,4.47
2018-04-18T11:22:25.643Z,5.00
2018-04-18T11:24:52.265Z,6.05
2018-04-18T11:27:18.896Z,5.47
2018-04-18T11:29:45.532Z,4.72
2018-04-18T11:32:12.220Z,5.57
2018-04-18T11:34:38.852Z,4.43
2018-04-18T11:37:05.495Z,4.45
2018-04-18T11:39:32.156Z,7.70
2018-04-18T11:41:58.796Z,5.62
2018-04-18T11:44:25.538Z,9.10
2018-04-18T11:46:52.414Z,6.83
2018-04-18T11:49:19.332Z,13.77
2018-04-18T11:51:46.056Z,13.70
2018-04-18T11:54:12.831Z,36.33
2018-04-18T11:56:39.476Z,19.27
2018-04-18T11:59:06.128Z,13.37
2018-04-18T12:01:32.838Z,24.50
2018-04-18T12:03:59.863Z,24.97
2018-04-18T12:06:27.325Z,17.40
2018-04-18T12:08:54.290Z,16.43
2018-04-18T12:11:20.939Z,28.40
2018-04-18T12:13:50.023Z,8.70
2018-04-18T12:16:16.705Z,10.23
2018-04-18T12:18:43.327Z,6.90
2018-04-18T12:21:09.984Z,9.07
2018-04-18T12:23:36.632Z,12.67
2018-04-18T12:26:03.296Z,9.90
2018-04-18T12:28:29.942Z,9.90
2018-04-18T12:30:56.695Z,15.30
2018-04-18T12:33:23.333Z,5.67
2018-04-18T12:35:50.046Z,9.20
2018-04-18T12:38:16.666Z,3.20
2018-04-18T12:40:43.290Z,6.50
2018-04-18T12:43:09.942Z,9.17
2018-04-18T12:45:36.572Z,8.20
2018-04-18T12:48:03.273Z,7.00
2018-04-18T12:50:29.908Z,3.90
2018-04-18T12:52:56.534Z,4.67
2018-04-18T12:55:23.268Z,10.47
2018-04-18T12:57:50.009Z,3.47
2018-04-18T13:00:16.672Z,4.43
2018-04-18T13:02:43.413Z,2.80
2018-04-18T13:05:10.136Z,2.60
2018-04-18T13:07:36.793Z,7.97
2018-04-18T13:10:03.415Z,6.23
2018-04-18T13:12:30.051Z,2.57
2018-04-18T13:14:56.683Z,10.97
2018-04-18T13:17:23.329Z,15.27
2018-04-18T13:19:50.084Z,19.97
2018-04-18T13:22:17.460Z,3.93
2018-04-18T13:24:44.188Z,7.60
2018-04-18T13:27:10.826Z,4.90
2018-04-18T13:29:37.456Z,3.60
2018-04-18T13:32:04.090Z,11.80
2018-04-18T13:34:30.735Z,6.00
2018-04-18T13:36:57.367Z,10.30
2018-04-18T13:39:23.998Z,36.13
2018-04-18T13:41:50.641Z,5.10
2018-04-18T13:44:17.381Z,31.70
2018-04-18T13:46:44.006Z,7.50
2018-04-18T13:49:10.651Z,22.27
2018-04-18T13:51:37.289Z,8.17
2018-04-18T13:54:03.915Z,6.97
2018-04-18T13:56:30.566Z,8.63
2018-04-18T13:58:57.209Z,4.00
2018-04-18T14:01:23.851Z,8.43
2018-04-18T14:03:50.492Z,9.40
2018-04-18T14:06:17.123Z,10.03
2018-04-18T14:08:43.747Z,9.27
2018-04-18T14:11:10.432Z,2.70
2018-04-18T14:13:37.058Z,3.50
2018-04-18T14:16:03.688Z,2.20
2018-04-18T14:18:30.335Z,9.47
2018-04-18T14:20:56.978Z,8.60
2018-04-18T14:23:23.603Z,5.30
2018-04-18T14:25:50.247Z,7.35
2018-04-18T14:28:16.874Z,5.83
2018-04-18T14:30:43.514Z,8.37
2018-04-18T14:33:10.160Z,3.60
2018-04-18T14:35:36.900Z,5.63
2018-04-18T14:38:03.551Z,5.37
2018-04-18T14:40:30.187Z,3.37
2018-04-18T14:42:56.819Z,5.73
2018-04-18T14:45:23.447Z,7.17
2018-04-18T14:47:50.088Z,8.70
2018-04-18T14:50:16.938Z,5.73
2018-04-18T14:52:43.614Z,2.77
2018-04-18T14:55:10.315Z,3.80
2018-04-18T14:57:36.955Z,3.13
2018-04-18T15:00:03.582Z,2.30
2018-04-18T15:02:30.223Z,2.30
2018-04-18T15:04:56.871Z,2.47
2018-04-18T15:07:23.498Z,2.70
2018-04-18T15:09:50.151Z,2.50
2018-04-18T15:12:16.780Z,3.57
2018-04-18T15:14:43.430Z,3.53
2018-04-18T15:17:10.072Z,3.00
2018-04-18T15:19:36.696Z,2.50
2018-04-18T15:22:03.311Z,2.43
2018-04-18T15:24:29.956Z,3.40
2018-04-18T15:26:56.584Z,2.67
2018-04-18T15:31:49.528Z,2.13
2018-04-18T15:34:16.152Z,2.00
2018-04-18T15:36:42.876Z,3.40
2018-04-18T15:39:09.519Z,3.10
2018-04-18T15:41:36.162Z,2.60
2018-04-18T15:44:02.800Z,3.40
2018-04-18T15:46:29.450Z,2.17
2018-04-18T15:48:56.066Z,2.50
2018-04-18T15:51:22.693Z,5.20
2018-04-18T15:53:49.374Z,2.23
2018-04-18T15:56:16.092Z,2.87
2018-04-18T15:58:42.753Z,2.80
2018-04-18T16:01:09.469Z,2.40
2018-04-18T16:03:36.095Z,2.30
2018-04-18T16:06:02.728Z,2.20
2018-04-18T16:08:29.368Z,2.80
2018-04-18T16:10:56.032Z,2.73
2018-04-18T16:13:22.767Z,1.90
2018-04-18T16:15:49.423Z,2.60
2018-04-18T16:18:16.602Z,2.50
2018-04-18T16:20:43.182Z,2.80
2018-04-18T16:23:09.823Z,2.40
2018-04-18T16:25:36.497Z,1.90
2018-04-18T16:28:03.084Z,1.80
2018-04-18T16:30:34.521Z,2.60
2018-04-18T16:33:01.152Z,2.93
2018-04-18T16:35:27.844Z,3.30
2018-04-18T16:37:54.478Z,2.80
2018-04-18T16:40:21.103Z,3.50
2018-04-18T16:42:47.726Z,2.33
2018-04-18T16:45:14.654Z,2.80
2018-04-18T16:47:41.371Z,2.30
2018-04-18T16:50:08.000Z,2.87
2018-04-18T16:52:34.644Z,3.50
2018-04-18T16:55:01.271Z,3.23
2018-04-18T16:57:27.892Z,3.50
2018-04-18T16:59:54.532Z,4.07
2018-04-18T17:02:21.178Z,2.77
2018-04-18T17:04:47.826Z,3.27
2018-04-18T17:07:14.458Z,2.87
2018-04-18T17:09:41.090Z,3.20
2018-04-18T17:12:07.717Z,3.30
2018-04-18T17:14:34.362Z,3.90
2018-04-18T17:17:00.997Z,3.35
2018-04-18T17:19:27.624Z,3.13
2018-04-18T17:21:54.292Z,3.37
2018-04-18T17:24:20.932Z,2.80
2018-04-18T17:26:47.551Z,3.40
2018-04-18T17:29:14.203Z,3.03
2018-04-18T17:31:40.838Z,3.35
2018-04-18T17:34:07.467Z,3.55
2018-04-18T17:36:34.124Z,3.28
2018-04-18T17:39:00.867Z,4.28
2018-04-18T17:41:27.604Z,4.55
2018-04-18T17:43:54.349Z,3.60
2018-04-18T17:46:21.092Z,4.90
2018-04-18T17:48:47.831Z,4.45
2018-04-18T17:51:14.575Z,4.20
2018-04-18T17:53:41.315Z,5.22
2018-04-18T17:56:07.952Z,4.43
2018-04-18T17:58:34.591Z,4.40
2018-04-18T18:01:01.220Z,4.25
2018-04-18T18:03:27.846Z,3.85
2018-04-18T18:05:54.505Z,3.97
2018-04-18T18:08:21.128Z,5.20
2018-04-18T18:10:47.756Z,5.12
2018-04-18T18:13:14.390Z,4.97
2018-04-18T18:15:41.014Z,4.53
2018-04-18T18:18:07.631Z,4.03
2018-04-18T18:20:34.273Z,5.03
2018-04-18T18:23:00.900Z,5.93
2018-04-18T18:25:27.619Z,5.43
2018-04-18T18:27:54.270Z,4.43
2018-04-18T18:30:21.004Z,5.68
2018-04-18T18:32:47.640Z,6.57
2018-04-18T18:35:14.286Z,5.85
2018-04-18T18:37:40.907Z,7.20
2018-04-18T18:40:07.532Z,6.82
2018-04-18T18:42:34.169Z,5.75
2018-04-18T18:45:00.841Z,6.20
2018-04-18T18:47:27.468Z,5.72
2018-04-18T18:49:54.210Z,5.40
2018-04-18T18:52:20.854Z,5.30
2018-04-18T18:54:47.480Z,6.62
2018-04-18T18:57:14.160Z,6.30
2018-04-18T18:59:40.789Z,6.10
2018-04-18T19:02:07.522Z,7.10
2018-04-18T19:04:34.155Z,6.55
2018-04-18T19:07:00.783Z,6.93
2018-04-18T19:09:27.437Z,6.75
2018-04-18T19:11:54.109Z,6.62
2018-04-18T19:14:20.839Z,6.32
2018-04-18T19:16:47.453Z,5.85
2018-04-18T19:19:14.082Z,5.55
2018-04-18T19:21:40.728Z,5.85
2018-04-18T19:24:07.367Z,5.43
2018-04-18T19:26:34.003Z,5.80
2018-04-18T19:29:00.632Z,4.87
2018-04-18T19:31:27.254Z,5.55
2018-04-18T19:33:53.950Z,5.80
2018-04-18T19:36:20.564Z,5.82
2018-04-18T19:38:47.192Z,4.93
2018-04-18T19:41:13.825Z,4.68
2018-04-18T19:43:40.451Z,5.45
2018-04-18T19:46:07.083Z,5.07
2018-04-18T19:48:33.728Z,4.80
2018-04-18T19:51:00.361Z,5.32
2018-04-18T19:53:27.037Z,5.93
2018-04-18T19:55:53.688Z,6.62
2018-04-18T19:58:20.349Z,6.10
2018-04-18T20:00:46.960Z,6.30
2018-04-18T20:03:13.709Z,6.10
2018-04-18T20:05:40.340Z,5.90
2018-04-18T20:08:06.963Z,6.68
2018-04-18T20:10:33.706Z,8.40
2018-04-18T20:13:00.340Z,18.33
2018-04-18T20:15:26.987Z,10.63
2018-04-18T20:17:53.631Z,7.70
2018-04-18T20:20:20.274Z,7.20
2018-04-18T20:22:47.020Z,6.68
2018-04-18T20:25:13.755Z,8.25
2018-04-18T20:27:40.393Z,6.65
2018-04-18T20:30:07.038Z,8.30
2018-04-18T20:32:33.684Z,8.10
2018-04-18T20:35:00.306Z,7.50
2018-04-18T20:37:26.927Z,8.15
2018-04-18T20:39:53.571Z,8.40
2018-04-18T20:42:20.196Z,8.32
2018-04-18T20:44:46.837Z,8.48
2018-04-18T20:47:13.503Z,8.35
2018-04-18T20:49:40.135Z,8.95
2018-04-18T20:52:06.764Z,8.93
2018-04-18T20:54:33.412Z,8.80
2018-04-18T20:57:00.062Z,9.55
2018-04-18T20:59:26.700Z,8.38
2018-04-18T21:01:53.392Z,9.65
2018-04-18T21:04:20.079Z,8.40
2018-04-18T21:06:46.828Z,9.52
2018-04-18T21:09:13.589Z,9.68
2018-04-18T21:11:40.215Z,8.80
2018-04-18T21:14:07.767Z,9.43
2018-04-18T21:16:34.406Z,9.75
2018-04-18T21:19:01.036Z,9.00
2018-04-18T21:21:27.687Z,8.75
2018-04-18T21:23:54.327Z,8.68
2018-04-18T21:26:20.954Z,9.15
2018-04-18T21:28:47.582Z,10.00
2018-04-18T21:31:14.231Z,8.38
2018-04-18T21:33:40.867Z,9.13
2018-04-18T21:36:07.520Z,10.00
2018-04-18T21:38:34.199Z,9.50
2018-04-18T21:41:00.836Z,9.43
2018-04-18T21:43:27.458Z,9.95
2018-04-18T21:45:54.169Z,9.73
2018-04-18T21:48:20.790Z,9.82
2018-04-18T21:50:47.452Z,9.20
2018-04-18T21:53:14.159Z,8.75
2018-04-18T21:55:40.803Z,9.20
2018-04-18T21:58:07.473Z,8.43
2018-04-18T22:14:26.635Z,8.80
2018-04-18T22:16:53.444Z,10.20
2018-04-18T22:19:20.027Z,10.38
2018-04-18T22:21:46.655Z,9.27
2018-04-18T22:24:13.392Z,9.95
2018-04-18T22:26:40.025Z,8.48
2018-04-18T22:29:06.667Z,10.07
2018-04-18T22:31:33.407Z,9.80
2018-04-18T22:34:00.164Z,10.05
2018-04-18T22:36:26.792Z,9.15
2018-04-18T22:38:53.430Z,9.50
2018-04-18T22:41:20.070Z,9.57
2018-04-18T22:43:46.747Z,7.65
2018-04-18T22:46:13.455Z,7.62
2018-04-18T22:48:40.187Z,7.60
2018-04-18T22:51:06.819Z,7.82
2018-04-18T22:53:33.575Z,8.55
2018-04-18T22:56:00.199Z,8.63
2018-04-18T22:58:26.851Z,7.97
2018-04-18T23:00:53.495Z,8.80
2018-04-18T23:03:20.125Z,9.35
2018-04-18T23:05:46.755Z,9.13
2018-04-18T23:08:13.413Z,9.50
2018-04-18T23:10:40.039Z,9.05
2018-04-18T23:13:06.691Z,9.70
2018-04-18T23:15:33.336Z,10.02
2018-04-18T23:17:59.963Z,10.93
2018-04-18T23:20:26.585Z,8.65
2018-04-18T23:22:53.241Z,10.02
2018-04-18T23:25:19.884Z,10.82
2018-04-18T23:27:46.527Z,11.60
2018-04-18T23:30:13.180Z,13.35
2018-04-18T23:32:39.811Z,11.70
2018-04-18T23:35:06.548Z,11.10
2018-04-18T23:37:33.191Z,11.23
2018-04-18T23:39:59.927Z,10.20
2018-04-18T23:42:26.570Z,10.07
2018-04-18T23:44:53.227Z,11.20
2018-04-18T23:47:19.854Z,10.20
2018-04-18T23:49:46.490Z,10.43
2018-04-18T23:52:13.142Z,11.00
2018-04-18T23:54:39.859Z,10.88
2018-04-18T23:57:06.490Z,11.70
2018-04-18T23:59:33.243Z,10.90
